TimePDT,TemperatureF,Dew PointF,Humidity,Sea Level PressureIn,VisibilityMPH,Wind Direction,Wind SpeedMPH,Gust SpeedMPH,PrecipitationIn,Events,Conditions,WindDirDegrees,DateUTC
12:53 AM,54.0,48.9,83,30.10,7.0,Calm,Calm,-,N/A,,Clear,0,2013-08-13 07:53:00
1:48 AM,53.6,48.2,82,30.10,1.8,Calm,Calm,-,N/A,,Mostly Cloudy,0,2013-08-13 08:48:00
1:53 AM,53.1,50.0,89,30.11,1.2,Calm,Calm,-,N/A,,Overcast,0,2013-08-13 08:53:00
2:00 AM,53.6,50.0,88,30.11,2.0,Calm,Calm,-,N/A,,Overcast,0,2013-08-13 09:00:00
2:10 AM,53.6,48.2,82,30.10,6.0,Calm,Calm,-,N/A,,Overcast,0,2013-08-13 09:10:00
2:51 AM,53.6,50.0,88,30.10,9.0,Calm,Calm,-,N/A,,Overcast,0,2013-08-13 09:51:00
2:53 AM,55.0,50.0,83,30.11,9.0,Calm,Calm,-,N/A,,Overcast,0,2013-08-13 09:53:00
3:53 AM,55.0,51.1,86,30.11,9.0,Calm,Calm,-,N/A,,Overcast,0,2013-08-13 10:53:00
4:53 AM,55.9,52.0,87,30.10,9.0,Calm,Calm,-,N/A,,Overcast,0,2013-08-13 11:53:00
5:53 AM,55.0,51.1,86,30.11,7.0,Calm,Calm,-,N/A,,Overcast,0,2013-08-13 12:53:00
6:53 AM,54.0,50.0,86,30.11,4.0,Calm,Calm,-,N/A,,Scattered Clouds,0,2013-08-13 13:53:00
7:53 AM,59.0,54.0,83,30.11,7.0,Calm,Calm,-,N/A,,Overcast,0,2013-08-13 14:53:00
8:53 AM,61.0,54.0,78,30.12,7.0,Calm,Calm,-,N/A,,Overcast,0,2013-08-13 15:53:00
9:53 AM,66.0,53.1,63,30.11,8.0,WNW,3.5,-,N/A,,Clear,290,2013-08-13 16:53:00
10:53 AM,69.1,53.1,57,30.10,9.0,SSW,4.6,-,N/A,,Partly Cloudy,210,2013-08-13 17:53:00
11:07 AM,69.8,51.8,53,30.11,9.0,WSW,6.9,-,N/A,,Mostly Cloudy,240,2013-08-13 18:07:00
11:25 AM,69.8,53.6,56,30.10,9.0,Calm,Calm,-,N/A,,Mostly Cloudy,0,2013-08-13 18:25:00
11:53 AM,70.0,53.1,55,30.10,9.0,West,4.6,-,N/A,,Scattered Clouds,270,2013-08-13 18:53:00
12:53 PM,71.1,52.0,51,30.09,9.0,West,9.2,-,N/A,,Clear,260,2013-08-13 19:53:00
1:53 PM,70.0,51.1,51,30.09,9.0,SW,10.4,-,N/A,,Clear,230,2013-08-13 20:53:00
2:53 PM,71.1,51.1,49,30.08,9.0,WSW,13.8,-,N/A,,Clear,240,2013-08-13 21:53:00
3:53 PM,72.0,51.1,48,30.06,9.0,West,9.2,-,N/A,,Clear,270,2013-08-13 22:53:00
4:53 PM,71.1,50.0,47,30.05,9.0,West,8.1,-,N/A,,Clear,270,2013-08-13 23:53:00
5:53 PM,71.1,51.1,49,30.01,9.0,WNW,3.5,-,N/A,,Clear,300,2013-08-14 00:53:00
6:53 PM,70.0,52.0,53,29.99,9.0,NW,3.5,-,N/A,,Clear,310,2013-08-14 01:53:00
7:53 PM,64.9,52.0,63,29.97,8.0,NNW,4.6,-,N/A,,Clear,330,2013-08-14 02:53:00
8:53 PM,62.1,52.0,70,29.96,9.0,Calm,Calm,-,N/A,,Clear,0,2013-08-14 03:53:00
9:53 PM,59.0,51.1,75,29.96,8.0,Calm,Calm,-,N/A,,Clear,0,2013-08-14 04:53:00
10:53 PM,57.0,50.0,77,29.95,8.0,Calm,Calm,-,N/A,,Clear,0,2013-08-14 05:53:00
11:53 PM,55.9,48.9,77,29.94,8.0,Calm,Calm,-,N/A,,Clear,0,2013-08-14 06:53:00